createdAt,value
2018-02-20T13:14:58.141Z,31.83
2018-02-20T13:17:24.813Z,30.97
2018-02-20T13:19:51.522Z,34.80
2018-02-20T13:22:18.216Z,32.23
2018-02-20T13:24:44.908Z,31.53
2018-02-20T13:27:11.646Z,32.20
2018-02-20T13:29:38.338Z,27.13
2018-02-20T13:32:05.077Z,27.13
2018-02-20T13:34:31.795Z,25.97
2018-02-20T13:36:58.566Z,27.40
2018-02-20T13:39:25.290Z,27.60
2018-02-20T13:41:52.017Z,30.57
2018-02-20T13:44:18.714Z,27.37
2018-02-20T13:46:45.408Z,24.43
2018-02-20T13:49:12.173Z,31.40
2018-02-20T13:51:39.002Z,23.03
2018-02-20T13:54:05.712Z,25.40
2018-02-20T13:56:32.507Z,25.07
2018-02-20T13:58:59.214Z,26.17
2018-02-20T14:01:25.930Z,27.63
2018-02-20T14:03:52.633Z,25.60
2018-02-20T14:06:19.369Z,32.80
2018-02-20T14:08:46.053Z,27.83
2018-02-20T14:11:12.786Z,31.80
2018-02-20T14:13:39.489Z,33.87
2018-02-20T14:16:06.177Z,31.03
2018-02-20T14:18:32.865Z,30.87
2018-02-20T14:20:59.635Z,28.93
2018-02-20T14:23:26.344Z,26.07
2018-02-20T14:25:53.251Z,27.57
2018-02-20T14:28:19.921Z,33.77
2018-02-20T14:30:46.662Z,27.83
2018-02-20T14:33:13.346Z,31.47
2018-02-20T14:35:40.113Z,25.37
2018-02-20T14:38:06.817Z,28.10
2018-02-20T14:40:33.508Z,25.93
2018-02-20T14:43:00.284Z,29.07
2018-02-20T14:45:27.010Z,33.07
2018-02-20T14:47:53.692Z,28.00
2018-02-20T14:50:20.385Z,29.50
2018-02-20T14:52:47.094Z,30.83
2018-02-20T14:55:13.806Z,25.70
2018-02-20T14:57:40.549Z,28.90
2018-02-20T15:00:07.241Z,28.47
2018-02-20T15:02:33.934Z,29.17
2018-02-20T15:05:00.778Z,27.13
2018-02-20T15:07:27.482Z,26.97
2018-02-20T15:09:54.190Z,26.83
2018-02-20T15:12:20.873Z,27.07
2018-02-20T15:14:47.587Z,34.20
2018-02-20T15:17:14.267Z,28.63
2018-02-20T15:19:41.070Z,28.57
2018-02-20T15:22:07.781Z,25.73
2018-02-20T15:24:34.698Z,34.67
2018-02-20T15:27:01.398Z,30.73
2018-02-20T15:29:28.105Z,28.67
2018-02-20T15:31:54.873Z,33.20
2018-02-20T15:34:21.568Z,29.80
2018-02-20T15:36:48.281Z,34.83
2018-02-20T15:39:14.966Z,29.50
2018-02-20T15:41:41.675Z,30.80
2018-02-20T15:44:08.361Z,28.53
2018-02-20T15:46:35.091Z,28.43
2018-02-20T15:49:01.797Z,32.87
2018-02-20T15:51:28.646Z,32.60
2018-02-20T15:53:55.358Z,35.33
2018-02-20T15:56:22.079Z,32.40
2018-02-20T15:58:48.800Z,32.90
2018-02-20T16:01:15.515Z,32.47
2018-02-20T16:03:42.214Z,34.17
2018-02-20T16:06:08.954Z,34.37
2018-02-20T16:08:35.642Z,33.50
2018-02-20T16:11:02.361Z,29.37
2018-02-20T16:13:29.086Z,30.73
2018-02-20T16:15:58.796Z,28.10
2018-02-20T16:18:25.508Z,36.87
2018-02-20T16:20:52.223Z,31.77
2018-02-20T16:23:18.917Z,36.57
2018-02-20T16:25:45.759Z,30.93
2018-02-20T16:28:12.533Z,29.90
2018-02-20T16:30:39.220Z,35.97
2018-02-20T16:33:05.890Z,31.00
2018-02-20T16:35:32.653Z,30.57
2018-02-20T16:37:59.408Z,29.30
2018-02-20T16:40:26.105Z,37.47
2018-02-20T16:42:52.991Z,36.67
2018-02-20T16:45:19.697Z,33.43
2018-02-20T16:47:46.393Z,32.80
2018-02-20T16:50:13.071Z,38.33
2018-02-20T16:52:39.777Z,34.27
2018-02-20T16:55:06.516Z,34.53
2018-02-20T16:57:33.221Z,32.00
2018-02-20T16:59:59.933Z,34.37
2018-02-20T17:02:26.749Z,40.00
2018-02-20T17:04:53.445Z,36.23
2018-02-20T17:07:20.166Z,36.97
2018-02-20T17:09:46.846Z,35.77
2018-02-20T17:12:13.558Z,33.83
2018-02-20T17:14:40.264Z,36.27
2018-02-20T17:17:06.969Z,35.53
2018-02-20T17:19:33.677Z,35.97
2018-02-20T17:22:00.386Z,36.47
2018-02-20T17:24:27.265Z,37.40
2018-02-20T17:26:53.964Z,36.43
2018-02-20T17:29:20.846Z,39.57
2018-02-20T17:31:47.537Z,38.50
2018-02-20T17:34:14.249Z,35.30
2018-02-20T17:36:41.113Z,38.97
2018-02-20T17:39:07.839Z,38.97
2018-02-20T17:41:34.521Z,35.50
2018-02-20T17:44:01.206Z,37.93
2018-02-20T17:46:27.919Z,41.30
2018-02-20T17:48:54.625Z,38.23
2018-02-20T17:51:21.304Z,41.40
2018-02-20T17:53:47.986Z,38.83
2018-02-20T17:56:14.869Z,42.17
2018-02-20T17:58:41.621Z,35.43
2018-02-20T18:01:08.357Z,37.60
2018-02-20T18:03:35.069Z,36.70
2018-02-20T18:06:01.769Z,41.37
2018-02-20T18:08:28.473Z,40.50
2018-02-20T18:10:55.162Z,44.23
2018-02-20T18:13:21.881Z,40.97
2018-02-20T18:15:48.587Z,43.27
2018-02-20T18:18:15.357Z,38.30
2018-02-20T18:20:42.062Z,39.53
2018-02-20T18:23:08.784Z,41.17
2018-02-20T18:25:35.475Z,46.33
2018-02-20T18:28:02.195Z,42.13
2018-02-20T18:30:28.905Z,38.60
2018-02-20T18:32:55.786Z,42.73
2018-02-20T18:35:22.476Z,39.50
2018-02-20T18:37:49.171Z,43.03
2018-02-20T18:40:15.883Z,43.53
2018-02-20T18:42:42.587Z,40.80
2018-02-20T18:45:09.285Z,38.83
2018-02-20T18:47:36.113Z,40.23
2018-02-20T18:50:02.863Z,45.43
2018-02-20T18:52:29.615Z,43.73
2018-02-20T18:54:56.320Z,42.00
2018-02-20T18:57:23.045Z,47.80
2018-02-20T18:59:49.751Z,43.47
2018-02-20T19:02:16.471Z,44.00
2018-02-20T19:04:43.214Z,44.80
2018-02-20T19:07:09.952Z,40.70
2018-02-20T19:09:36.659Z,46.70
2018-02-20T19:12:03.417Z,41.80
2018-02-20T19:14:30.127Z,42.93
2018-02-20T19:16:56.839Z,42.13
2018-02-20T19:19:23.545Z,42.77
2018-02-20T19:21:50.327Z,44.97
2018-02-20T19:24:17.112Z,44.17
2018-02-20T19:26:43.884Z,48.60
2018-02-20T19:29:10.755Z,46.33
2018-02-20T19:31:37.486Z,44.80
2018-02-20T19:34:04.987Z,43.37
2018-02-20T19:36:31.697Z,42.60
2018-02-20T19:38:58.415Z,44.87
2018-02-20T19:41:25.133Z,52.17
2018-02-20T19:43:51.970Z,51.30
2018-02-20T19:46:18.678Z,42.93
2018-02-20T19:48:45.493Z,45.67
2018-02-20T19:51:12.233Z,49.43
2018-02-20T19:53:38.930Z,47.50
2018-02-20T19:56:05.607Z,52.97
2018-02-20T19:58:32.308Z,56.83
2018-02-20T20:00:59.046Z,47.50
2018-02-20T20:03:25.799Z,52.47
2018-02-20T20:05:52.506Z,50.27
2018-02-20T20:08:19.256Z,48.07
2018-02-20T20:10:45.946Z,53.10
2018-02-20T20:13:12.708Z,54.50
2018-02-20T20:15:39.415Z,50.30
2018-02-20T20:18:06.146Z,49.27
2018-02-20T20:20:37.009Z,53.73
2018-02-20T20:22:59.564Z,49.57
2018-02-20T20:25:26.282Z,51.70
2018-02-20T20:27:52.993Z,53.43
2018-02-20T20:30:19.701Z,55.50
2018-02-20T20:32:46.408Z,52.27
2018-02-20T20:35:13.133Z,53.03
2018-02-20T20:37:39.846Z,54.00
2018-02-20T20:40:06.567Z,53.77
2018-02-20T20:42:33.263Z,63.93
2018-02-20T20:44:59.966Z,57.90
2018-02-20T20:47:26.676Z,51.97
2018-02-20T20:49:53.439Z,54.63
2018-02-20T20:52:20.161Z,59.30
2018-02-20T20:54:47.188Z,59.33
2018-02-20T20:57:13.886Z,62.10
2018-02-20T20:59:40.817Z,55.87
2018-02-20T21:02:07.537Z,61.00
2018-02-20T21:04:34.227Z,54.80
2018-02-20T21:07:00.955Z,63.60
2018-02-20T21:09:27.665Z,57.73
2018-02-20T21:11:54.494Z,56.30
2018-02-20T21:14:21.214Z,52.00
2018-02-20T21:16:47.898Z,57.20
2018-02-20T21:19:14.642Z,52.43
2018-02-20T21:21:41.362Z,57.37
2018-02-20T21:24:08.133Z,60.97
2018-02-20T21:26:34.831Z,59.27
2018-02-20T21:29:01.658Z,66.10
2018-02-20T21:31:28.350Z,54.40
2018-02-20T21:33:55.279Z,61.67
2018-02-20T21:36:21.990Z,58.55
2018-02-20T21:38:48.753Z,58.77
2018-02-20T21:41:15.502Z,62.10
2018-02-20T21:43:42.209Z,59.17
2018-02-20T21:46:08.944Z,59.43
2018-02-20T21:48:35.627Z,56.33
2018-02-20T21:51:02.368Z,55.77
2018-02-20T21:53:29.145Z,55.90
2018-02-20T21:55:55.872Z,56.90
2018-02-20T21:58:22.563Z,61.07
2018-02-20T22:00:49.290Z,59.47
2018-02-20T22:03:16.108Z,62.50
2018-02-20T22:05:42.853Z,62.65
2018-02-20T22:08:09.638Z,53.77
2018-02-20T22:10:36.350Z,57.37
2018-02-20T22:13:03.153Z,65.53
2018-02-20T22:15:29.864Z,60.70
2018-02-20T22:17:56.584Z,60.97
2018-02-20T22:20:23.270Z,62.37
2018-02-20T22:22:49.997Z,61.67
2018-02-20T22:25:16.698Z,69.30
2018-02-20T22:27:43.498Z,62.23
2018-02-20T22:30:10.201Z,65.03
2018-02-20T22:32:36.909Z,67.32
2018-02-20T22:35:03.632Z,65.37
2018-02-20T22:37:30.324Z,61.55
2018-02-20T22:39:57.052Z,64.00
2018-02-20T22:42:23.740Z,67.07
2018-02-20T22:44:50.478Z,65.40
2018-02-20T22:47:17.196Z,61.60
2018-02-20T22:49:44.007Z,61.25
2018-02-20T22:52:10.937Z,63.83
2018-02-20T22:54:37.741Z,74.78
2018-02-20T22:57:04.475Z,64.72
2018-02-20T22:59:31.214Z,73.03
2018-02-20T23:01:57.934Z,63.20
2018-02-20T23:04:24.651Z,65.07
2018-02-20T23:06:51.378Z,77.70
2018-02-20T23:09:18.088Z,67.12
2018-02-20T23:11:47.526Z,61.17
2018-02-20T23:14:14.325Z,69.07
2018-02-20T23:16:41.025Z,71.35
2018-02-20T23:19:07.745Z,64.70
2018-02-20T23:21:34.434Z,69.80
2018-02-20T23:24:01.218Z,70.60
2018-02-20T23:26:27.917Z,65.57
2018-02-20T23:28:54.840Z,63.72
2018-02-20T23:31:21.657Z,70.32
2018-02-20T23:33:48.348Z,67.35
2018-02-20T23:36:15.056Z,67.65
2018-02-20T23:38:41.845Z,68.90
2018-02-20T23:41:08.578Z,67.05
2018-02-20T23:43:35.244Z,69.75
2018-02-20T23:46:01.949Z,67.10
2018-02-20T23:48:28.669Z,80.15
2018-02-20T23:51:01.246Z,69.95
2018-02-20T23:53:27.945Z,73.45
2018-02-20T23:55:54.641Z,68.40
2018-02-20T23:58:21.353Z,63.75
